Time;durP1;ratioP1;P1;durP2;ratioP2;P2;SDS_P1;SDS_P2;PMS_P1;PMS_P2;Temp;Humidity;BMP_temperature;BMP_pressure;BME280_temperature;BME280_humidity;BME280_pressure;Samples;Min_cycle;Max_cycle;Signal;HPM_P1;HPM_P2
2022/04/18 02:01:25;;;;;;;11.47;6.37;;;;;;;-145.18;100.00;47475.03;5192761;23;22090;-90
2022/04/18 02:03:50;;;;;;;9.67;6.50;;;;;;;-145.18;100.00;47480.88;5033584;23;20620;-75
2022/04/18 02:06:16;;;;;;;10.77;6.93;;;;;;;-145.18;100.00;47488.69;5030923;28;20420;-76
2022/04/18 02:08:41;;;;;;;8.73;6.40;;;;;;;-145.18;100.00;47465.25;5029856;28;20067;-75
2022/04/18 02:11:06;;;;;;;9.57;6.37;;;;;;;-145.18;100.00;47473.06;5031149;28;20516;-76
2022/04/18 02:13:32;;;;;;;11.27;6.37;;;;;;;-145.18;100.00;47482.84;5030588;28;20182;-75
2022/04/18 02:15:59;;;;;;;9.10;6.00;;;;;;;-145.18;100.00;47475.03;5030336;28;20038;-76
2022/04/18 02:18:24;;;;;;;11.43;6.43;;;;;;;-145.18;100.00;47482.84;5030510;28;20036;-76
2022/04/18 02:20:50;;;;;;;9.03;5.83;;;;;;;-145.18;100.00;47463.31;5030420;28;21019;-76
2022/04/18 02:23:15;;;;;;;8.03;5.77;;;;;;;-145.18;100.00;47480.88;5030382;28;20045;-76
2022/04/18 02:25:41;;;;;;;8.43;5.20;;;;;;;-145.18;100.00;47492.59;5012828;28;20029;-76
2022/04/18 02:28:06;;;;;;;13.43;5.77;;;;;;;-145.18;100.00;47475.03;5030394;28;20060;-76
2022/04/18 02:30:32;;;;;;;7.00;5.20;;;;;;;-145.18;100.00;47496.50;5030530;28;20474;-76
2022/04/18 02:32:57;;;;;;;8.60;5.40;;;;;;;-145.18;100.00;47494.56;5029879;28;20691;-76
2022/04/18 02:35:24;;;;;;;9.07;5.97;;;;;;;-145.18;100.00;47488.69;5030493;28;20068;-76
2022/04/18 02:37:50;;;;;;;7.80;5.57;;;;;;;-145.18;100.00;47488.69;5029646;28;20037;-75
2022/04/18 02:40:16;;;;;;;7.13;5.10;;;;;;;-145.18;100.00;47486.75;5012376;28;20282;-75
2022/04/18 02:42:42;;;;;;;8.67;5.57;;;;;;;-145.18;100.00;47490.66;5029642;28;20254;-75
2022/04/18 02:45:09;;;;;;;9.93;5.50;;;;;;;-145.18;100.00;47504.31;5013144;28;20119;-75
2022/04/18 02:47:35;;;;;;;10.83;6.20;;;;;;;-145.18;100.00;47494.56;5030089;28;20759;-75
2022/04/18 02:50:00;;;;;;;9.27;5.57;;;;;;;-145.18;100.00;47514.09;5030130;28;20274;-75
2022/04/18 02:52:26;;;;;;;8.50;5.47;;;;;;;-145.18;100.00;47516.06;5030114;28;20041;-75
2022/04/18 02:54:51;;;;;;;9.80;6.03;;;;;;;-145.18;100.00;47508.22;5030222;28;20042;-75
2022/04/18 02:57:16;;;;;;;7.33;5.70;;;;;;;-145.18;100.00;47504.31;5029945;28;20557;-75
2022/04/18 02:59:42;;;;;;;11.37;5.30;;;;;;;-145.18;100.00;47525.81;5030097;28;20029;-75
2022/04/18 03:02:07;;;;;;;7.60;4.83;;;;;;;-145.18;100.00;47531.69;5039898;28;20049;-75
2022/04/18 03:04:33;;;;;;;8.57;5.17;;;;;;;-145.18;100.00;47508.22;5050004;28;20033;-75
2022/04/18 03:06:58;;;;;;;9.43;5.17;;;;;;;-145.18;100.00;47521.91;5031424;28;20386;-76
2022/04/18 03:09:24;;;;;;;11.03;4.93;;;;;;;-145.18;100.00;47496.50;5050093;28;20065;-75
2022/04/18 03:11:49;;;;;;;7.43;4.53;;;;;;;-145.18;100.00;47504.31;5049142;28;20370;-75
2022/04/18 03:14:15;;;;;;;6.47;4.90;;;;;;;-145.18;100.00;47502.38;5049916;28;20630;-75
2022/04/18 03:16:40;;;;;;;6.77;4.40;;;;;;;-145.18;100.00;47508.22;5049334;28;20156;-76
2022/04/18 03:19:06;;;;;;;9.50;4.80;;;;;;;-145.18;100.00;47516.06;5049870;28;20111;-75
2022/04/18 03:21:31;;;;;;;6.73;4.37;;;;;;;-145.18;100.00;47510.19;5049921;28;20071;-75
2022/04/18 03:23:56;;;;;;;8.27;4.97;;;;;;;-145.18;100.00;47512.16;5031282;28;20033;-76
2022/04/18 03:26:22;;;;;;;6.57;4.30;;;;;;;-145.18;100.00;47518.00;5049861;28;20033;-75
2022/04/18 03:28:47;;;;;;;6.57;4.40;;;;;;;-145.18;100.00;47521.91;5049226;28;20032;-75
2022/04/18 03:31:12;;;;;;;7.10;4.63;;;;;;;-145.18;100.00;47510.19;5049622;28;20087;-75
2022/04/18 03:33:38;;;;;;;7.30;4.57;;;;;;;-145.18;100.00;47521.91;5052939;28;20036;-75
2022/04/18 03:41:31;;;;;;;8.27;3.63;;;;;;;-145.18;100.00;47523.88;5053682;28;20413;-75
2022/04/18 03:43:57;;;;;;;7.20;4.30;;;;;;;-145.18;100.00;47523.88;5053182;28;20419;-75
2022/04/18 03:46:23;;;;;;;5.13;3.50;;;;;;;-145.18;100.00;47516.06;5053532;28;20437;-76
2022/04/18 03:48:48;;;;;;;5.93;3.90;;;;;;;-145.18;100.00;47523.88;5052775;28;20557;-76
2022/04/18 03:51:13;;;;;;;6.03;4.23;;;;;;;-145.18;100.00;47512.16;5035570;28;20353;-75
2022/04/18 03:53:39;;;;;;;5.67;4.10;;;;;;;-145.18;100.00;47512.16;5052851;28;20040;-75
2022/04/18 03:56:04;;;;;;;10.10;5.00;;;;;;;-145.18;100.00;47539.50;5053341;28;20184;-75
2022/04/18 03:58:30;;;;;;;6.33;4.43;;;;;;;-145.18;100.00;47543.41;5052803;28;20029;-75
2022/04/18 04:00:55;;;;;;;8.37;4.77;;;;;;;-145.18;100.00;47533.63;5052969;28;20036;-76
2022/04/18 04:03:20;;;;;;;7.73;4.40;;;;;;;-145.18;100.00;47562.94;5034677;28;20057;-75
2022/04/18 04:05:46;;;;;;;8.97;4.77;;;;;;;-145.18;100.00;47557.06;5053294;28;20033;-75
2022/04/18 04:08:11;;;;;;;12.77;4.27;;;;;;;-145.18;100.00;47557.06;5052595;28;20040;-75
2022/04/18 04:10:36;;;;;;;7.33;4.37;;;;;;;-145.18;100.00;47539.50;5053347;28;20028;-75
2022/04/18 04:13:02;;;;;;;7.60;4.07;;;;;;;-145.18;100.00;47543.41;5052493;28;20029;-75
2022/04/18 04:15:27;;;;;;;7.57;4.77;;;;;;;-145.18;100.00;47535.59;5053345;28;20473;-75
2022/04/18 04:17:53;;;;;;;5.60;4.20;;;;;;;-145.18;100.00;47547.31;5052524;28;20041;-75
2022/04/18 04:20:19;;;;;;;9.13;4.13;;;;;;;-145.18;100.00;47545.34;5035426;28;20039;-75
2022/04/18 04:22:51;;;;;;;5.23;4.40;;;;;;;-145.18;100.00;47547.31;5034888;28;20432;-75
2022/04/18 04:25:20;;;;;;;6.40;4.50;;;;;;;-145.18;100.00;47549.25;5052841;28;20265;-75
2022/04/18 04:27:45;;;;;;;7.57;4.80;;;;;;;-145.18;100.00;47535.59;5051877;28;20276;-75
2022/04/18 04:30:11;;;;;;;6.50;4.37;;;;;;;-145.18;100.00;47559.03;5050578;28;20277;-76
2022/04/18 04:32:36;;;;;;;7.47;5.00;;;;;;;-145.18;100.00;47584.44;5050928;28;20032;-75
2022/04/18 04:35:02;;;;;;;7.47;4.97;;;;;;;-145.18;100.00;47594.19;5051564;28;20112;-75
2022/04/18 04:37:27;;;;;;;11.73;4.90;;;;;;;-145.18;100.00;47582.47;5051852;28;20036;-75
2022/04/18 04:39:53;;;;;;;6.60;4.57;;;;;;;-145.18;100.00;47582.47;5051313;28;20762;-75
2022/04/18 04:42:19;;;;;;;12.47;4.80;;;;;;;-145.18;100.00;47564.91;5051523;28;20028;-74
2022/04/18 04:44:44;;;;;;;7.47;4.67;;;;;;;-145.18;100.00;47543.41;5051755;28;20099;-75
2022/04/18 04:47:11;;;;;;;8.03;4.83;;;;;;;-145.18;100.00;47566.84;5051391;28;20730;-74
2022/04/18 04:49:37;;;;;;;7.43;4.63;;;;;;;-145.18;100.00;47582.47;5052204;28;20075;-74
2022/04/18 04:52:04;;;;;;;6.50;4.40;;;;;;;-145.18;100.00;47568.81;5051999;28;20276;-74
2022/04/18 04:54:29;;;;;;;8.33;4.60;;;;;;;-145.18;100.00;47566.84;5048200;28;20273;-75
2022/04/18 04:56:54;;;;;;;7.10;4.60;;;;;;;-145.18;100.00;47561.00;5051432;28;20289;-74
2022/04/18 04:59:20;;;;;;;6.47;4.83;;;;;;;-145.18;100.00;47576.63;5052119;28;20437;-75
2022/04/18 05:01:45;;;;;;;8.13;4.97;;;;;;;-145.18;100.00;47603.97;5051953;28;20604;-74
2022/04/18 05:04:11;;;;;;;8.93;4.97;;;;;;;-145.18;100.00;47557.06;5052074;28;20049;-74
2022/04/18 05:06:36;;;;;;;6.90;4.17;;;;;;;-145.18;100.00;47547.31;5051941;28;20036;-74
2022/04/18 05:09:02;;;;;;;6.63;4.50;;;;;;;-145.18;100.00;47553.16;5051531;28;20076;-75
2022/04/18 05:11:27;;;;;;;5.70;4.37;;;;;;;-145.18;100.00;47570.75;5052032;28;20107;-75
2022/04/18 05:13:53;;;;;;;8.07;4.70;;;;;;;-145.18;100.00;47561.00;5051223;28;20039;-75
2022/04/18 05:16:18;;;;;;;6.83;4.10;;;;;;;-145.18;100.00;47561.00;5051493;28;20025;-75
2022/04/18 05:18:44;;;;;;;7.50;4.23;;;;;;;-145.18;100.00;47545.34;5032819;28;20025;-75
2022/04/18 05:21:10;;;;;;;5.97;4.00;;;;;;;-145.18;100.00;47555.13;5051623;28;20021;-75
2022/04/18 05:23:36;;;;;;;8.10;3.97;;;;;;;-145.18;100.00;47535.59;5051037;28;20044;-75
2022/04/18 05:26:01;;;;;;;6.50;3.93;;;;;;;-145.18;100.00;47527.78;5051365;28;20315;-75
2022/04/18 05:28:27;;;;;;;5.27;4.00;;;;;;;-145.18;100.00;47496.50;5051442;28;20029;-74
2022/04/18 05:30:52;;;;;;;7.20;3.83;;;;;;;-145.18;100.00;47510.19;5033537;28;20048;-75
2022/04/18 05:33:21;;;;;;;9.60;3.90;;;;;;;-145.18;100.00;47500.41;5051363;28;20028;-75
2022/04/18 05:35:46;;;;;;;8.27;3.80;;;;;;;-145.18;100.00;47508.22;5051310;28;20133;-75
2022/04/18 05:38:14;;;;;;;6.67;3.67;;;;;;;-145.18;100.00;47504.31;5051396;28;20415;-74
2022/04/18 05:40:39;;;;;;;5.37;3.77;;;;;;;-145.18;100.00;47492.59;5051041;28;20064;-75
2022/04/18 05:43:05;;;;;;;6.27;4.10;;;;;;;-145.18;100.00;47476.97;5051443;28;20659;-75
2022/04/18 05:45:30;;;;;;;6.23;3.47;;;;;;;-145.18;100.00;47475.03;5051530;28;20057;-75
2022/04/18 05:47:56;;;;;;;6.13;3.60;;;;;;;-145.18;100.00;47471.13;5050788;28;20044;-75
2022/04/18 05:50:21;;;;;;;8.00;3.80;;;;;;;-145.18;100.00;47471.13;5051205;28;20120;-75
2022/04/18 05:52:47;;;;;;;8.07;4.03;;;;;;;-145.18;100.00;47476.97;5050482;28;20455;-75
2022/04/18 05:55:13;;;;;;;7.73;3.50;;;;;;;-145.18;100.00;47467.22;5050000;28;20040;-75
2022/04/18 05:57:38;;;;;;;6.37;4.23;;;;;;;-145.18;100.00;47465.25;5050246;28;20290;-75
2022/04/18 06:00:05;;;;;;;7.03;3.97;;;;;;;-145.18;100.00;47455.47;5050242;28;20021;-76
2022/04/18 06:02:30;;;;;;;5.70;4.07;;;;;;;-145.18;100.00;47443.75;5049920;28;20053;-75
2022/04/18 06:04:56;;;;;;;11.17;3.83;;;;;;;-145.18;100.00;47457.44;5045781;28;20304;-75
2022/04/18 06:07:21;;;;;;;5.67;3.90;;;;;;;-145.18;100.00;47455.47;5050511;28;20036;-75
2022/04/18 06:09:46;;;;;;;7.13;4.17;;;;;;;-145.18;100.00;47443.75;5049799;28;20047;-75
2022/04/18 06:12:18;;;;;;;4.30;3.23;;;;;;;-145.18;100.00;47435.94;5032985;28;20044;-75
2022/04/18 06:14:44;;;;;;;6.60;4.13;;;;;;;-145.18;100.00;47426.19;5050246;28;20172;-76
2022/04/18 06:17:09;;;;;;;5.97;3.87;;;;;;;-145.18;100.00;47430.09;5060055;28;20697;-76
2022/04/18 06:19:34;;;;;;;8.53;4.10;;;;;;;-145.18;100.00;47424.22;5052574;28;20036;-76
2022/04/18 06:22:00;;;;;;;10.27;4.40;;;;;;;-145.18;100.00;47424.22;5045315;28;20495;-75
2022/04/18 06:24:25;;;;;;;10.23;4.30;;;;;;;-145.18;100.00;47420.31;5050260;28;20037;-76
2022/04/18 06:26:51;;;;;;;5.77;4.07;;;;;;;-145.18;100.00;47408.59;5050417;28;20098;-75
2022/04/18 06:29:16;;;;;;;7.63;4.90;;;;;;;-145.18;100.00;47400.78;5049998;28;20059;-76
2022/04/18 06:31:42;;;;;;;9.20;5.63;;;;;;;-145.18;100.00;47406.63;5050210;28;20037;-76
2022/04/18 06:34:07;;;;;;;7.33;4.90;;;;;;;-145.18;100.00;47406.63;5032273;28;20067;-77
2022/04/18 06:36:32;;;;;;;9.60;5.40;;;;;;;-145.18;100.00;47422.28;5047718;28;20044;-76
2022/04/18 06:38:58;;;;;;;11.17;6.17;;;;;;;-145.18;100.00;47392.97;5049616;28;20037;-76
2022/04/18 06:41:23;;;;;;;6.73;4.93;;;;;;;-145.18;100.00;47400.78;5050542;28;20052;-76
2022/04/18 06:43:48;;;;;;;6.93;4.77;;;;;;;-145.18;100.00;47406.63;5049641;28;20417;-76
2022/04/18 06:46:14;;;;;;;9.70;5.80;;;;;;;-145.18;100.00;47394.91;5050454;28;20041;-76
2022/04/18 06:48:39;;;;;;;7.53;4.27;;;;;;;-145.18;100.00;47392.97;5049751;28;20493;-76
2022/04/18 06:51:04;;;;;;;10.07;4.77;;;;;;;-145.18;100.00;47383.19;5050218;28;20433;-76
2022/04/18 06:53:30;;;;;;;11.23;4.53;;;;;;;-145.18;100.00;47381.25;5049828;28;20040;-76
2022/04/18 06:58:39;;;;;;;11.20;4.97;;;;;;;-145.18;100.00;47363.66;5049809;28;20036;-76
2022/04/18 07:01:05;;;;;;;9.90;4.73;;;;;;;-145.18;100.00;47375.38;5049742;28;20270;-76
2022/04/18 07:03:30;;;;;;;6.80;4.40;;;;;;;-145.18;100.00;47355.84;5049670;28;20092;-77
2022/04/18 07:05:56;;;;;;;9.93;4.40;;;;;;;-145.18;100.00;47369.53;5049253;28;20444;-77
2022/04/18 07:08:21;;;;;;;8.23;4.80;;;;;;;-145.18;100.00;47371.47;5049267;28;20033;-77
2022/04/18 07:10:47;;;;;;;8.43;4.90;;;;;;;-145.18;100.00;47349.97;5049370;28;20584;-77
2022/04/18 07:13:13;;;;;;;8.53;5.00;;;;;;;-145.18;100.00;47385.16;5049747;28;20017;-77
2022/04/18 07:15:39;;;;;;;8.90;4.40;;;;;;;-145.18;100.00;47377.34;5049827;28;20024;-77
2022/04/18 07:18:05;;;;;;;10.53;5.30;;;;;;;-145.18;100.00;47375.38;5049264;28;20309;-77
2022/04/18 07:20:31;;;;;;;7.03;4.80;;;;;;;-145.18;100.00;47361.72;5049783;28;20274;-77
2022/04/18 07:22:57;;;;;;;7.47;4.17;;;;;;;-145.18;100.00;47349.97;5048967;28;20309;-78
2022/04/18 07:25:22;;;;;;;8.60;4.80;;;;;;;-145.18;100.00;47363.66;5049602;28;20405;-77
2022/04/18 07:27:48;;;;;;;7.50;4.60;;;;;;;-145.18;100.00;47330.44;5049217;28;20037;-78
2022/04/18 07:30:13;;;;;;;6.80;4.07;;;;;;;-145.18;100.00;47332.41;5049675;28;20057;-78
2022/04/18 07:32:40;;;;;;;8.37;4.87;;;;;;;-145.18;100.00;47320.69;5049227;28;20040;-78
2022/04/18 07:35:06;;;;;;;6.53;4.23;;;;;;;-145.18;100.00;47334.34;5049632;28;20044;-78
2022/04/18 07:37:31;;;;;;;6.33;4.30;;;;;;;-145.18;100.00;47312.88;5048625;28;20298;-78
2022/04/18 07:39:57;;;;;;;7.33;4.37;;;;;;;-145.18;100.00;47299.19;5048904;28;20665;-78
2022/04/18 07:42:22;;;;;;;9.07;3.50;;;;;;;-145.18;100.00;47314.81;5049508;28;20041;-77
2022/04/18 07:44:47;;;;;;;5.80;3.87;;;;;;;-145.18;100.00;47289.41;5031168;28;20134;-78
2022/04/18 07:47:13;;;;;;;6.57;3.63;;;;;;;-145.18;100.00;47285.50;5049559;28;20033;-78
2022/04/18 07:49:38;;;;;;;6.53;2.97;;;;;;;-145.18;100.00;47289.41;5049411;28;20174;-79
2022/04/18 07:52:04;;;;;;;5.47;3.30;;;;;;;-145.18;100.00;47275.75;5049096;28;20068;-79
2022/04/18 07:54:29;;;;;;;5.93;3.67;;;;;;;-145.18;100.00;47289.41;5049275;28;20025;-79
2022/04/18 07:56:55;;;;;;;5.97;3.33;;;;;;;-145.18;100.00;47260.13;5047966;28;20033;-79
2022/04/18 07:59:22;;;;;;;6.97;2.93;;;;;;;-145.18;100.00;47267.94;5048838;28;20075;-78
2022/04/18 08:01:47;;;;;;;4.27;2.60;;;;;;;-145.18;100.00;47265.97;5049252;28;20481;-79
2022/04/18 08:04:12;;;;;;;5.20;3.00;;;;;;;-145.18;100.00;47209.31;5049305;28;20289;-79
2022/04/18 08:06:38;;;;;;;4.73;2.90;;;;;;;-145.18;100.00;47246.44;5049569;28;20037;-79
2022/04/18 08:09:03;;;;;;;4.07;2.67;;;;;;;-145.18;100.00;47242.53;5048867;28;20040;-79
2022/04/18 08:11:29;;;;;;;3.03;2.70;;;;;;;-145.18;100.00;47228.84;5049729;28;20033;-79
2022/04/18 08:13:54;;;;;;;7.67;2.43;;;;;;;-145.18;100.00;47223.00;5048993;28;20068;-79
2022/04/18 08:16:20;;;;;;;4.47;2.40;;;;;;;-145.18;100.00;47219.09;5049475;28;20036;-79
2022/04/18 08:18:46;;;;;;;5.67;2.33;;;;;;;-145.18;100.00;47215.19;5051143;28;20609;-79
2022/04/18 08:21:12;;;;;;;3.63;2.40;;;;;;;-145.18;100.00;47193.69;5053110;28;20688;-80
2022/04/18 08:23:38;;;;;;;4.27;2.70;;;;;;;-145.18;100.00;47211.28;5034797;28;20033;-80
2022/04/18 08:26:04;;;;;;;8.33;2.40;;;;;;;-145.18;100.00;47183.94;5052819;28;20075;-80
2022/04/18 08:28:30;;;;;;;6.13;1.83;;;;;;;-145.18;100.00;47191.75;5052587;28;20029;-80
2022/04/18 08:30:56;;;;;;;3.47;2.23;;;;;;;-145.18;100.00;47195.66;5052602;28;20128;-80
2022/04/18 08:33:22;;;;;;;4.00;1.93;;;;;;;-145.18;100.00;47187.84;5034373;28;20121;-80
2022/04/18 08:35:48;;;;;;;7.43;2.20;;;;;;;-145.18;100.00;47189.78;5034100;28;20459;-80
2022/04/18 08:38:13;;;;;;;5.10;2.30;;;;;;;-145.18;100.00;47164.38;5052224;28;20037;-80
2022/04/18 08:40:42;;;;;;;5.43;2.30;;;;;;;-145.18;97.54;47158.53;5051855;28;20040;-80
2022/04/18 08:43:08;;;;;;;4.40;2.03;;;;;;;-145.18;95.84;47170.25;5034382;28;20473;-80
2022/04/18 08:45:33;;;;;;;5.50;2.63;;;;;;;-145.18;92.97;47150.72;5052409;28;20039;-80
2022/04/18 08:53:30;;;;;;;5.43;2.07;;;;;;;-145.18;85.15;47160.47;5052464;28;20040;-81
2022/04/18 08:55:57;;;;;;;3.80;2.30;;;;;;;-145.18;86.07;47166.34;5052338;28;20039;-81
2022/04/18 08:58:23;;;;;;;3.53;1.90;;;;;;;-145.18;86.23;47166.34;5052067;28;20033;-81
2022/04/18 09:00:50;;;;;;;5.90;2.00;;;;;;;-145.18;82.19;47154.63;5051862;28;20037;-81
2022/04/18 09:03:16;;;;;;;5.60;2.07;;;;;;;-145.18;81.02;47160.47;5051515;28;20492;-81
2022/04/18 09:05:41;;;;;;;4.60;2.07;;;;;;;-145.18;86.65;47162.44;5034498;28;20120;-82
2022/04/18 09:08:08;;;;;;;4.23;1.80;;;;;;;-145.18;82.16;47154.63;5051790;28;20025;-81
2022/04/18 09:10:35;;;;;;;2.97;2.10;;;;;;;-145.18;89.07;47174.16;5051915;28;20589;-81
2022/04/18 09:13:05;;;;;;;3.80;2.10;;;;;;;-145.18;85.31;47140.94;5051556;28;20055;-82
2022/04/18 09:15:51;;;;;;;2.83;2.10;;;;;;;-145.18;80.99;47162.44;5052120;28;20042;-81
2022/04/18 09:18:17;;;;;;;2.78;1.90;;;;;;;-145.18;82.36;47158.53;5051610;28;20040;-81
2022/04/18 09:20:44;;;;;;;3.67;2.37;;;;;;;-145.18;84.83;47162.44;5051891;28;20029;-82
2022/04/18 09:23:27;;;;;;;5.33;2.20;;;;;;;-145.18;77.06;47140.94;5051697;28;20036;-81
2022/04/18 09:26:00;;;;;;;3.77;2.03;;;;;;;-145.18;77.44;47146.81;5051570;28;20025;-81
2022/04/18 09:28:31;;;;;;;3.83;2.20;;;;;;;-145.18;79.95;47129.22;5051545;28;20032;-81
2022/04/18 09:31:00;;;;;;;8.43;2.60;;;;;;;-145.18;79.95;47111.66;5050597;28;20032;-82
2022/04/18 09:33:31;;;;;;;4.13;2.00;;;;;;;-145.18;78.13;47107.72;5051487;28;20017;-82
2022/04/18 09:36:17;;;;;;;4.27;2.13;;;;;;;-145.18;71.43;47125.31;5051650;28;20111;-81
2022/04/18 09:38:48;;;;;;;5.55;1.65;;;;;;;-145.18;71.32;47129.22;5051592;28;20025;-82
2022/04/18 09:41:16;;;;;;;11.30;2.40;;;;;;;-145.18;70.72;47103.81;5051730;28;20029;-81
2022/04/18 09:43:41;;;;;;;3.73;2.00;;;;;;;-145.18;70.64;47109.69;5051005;28;20029;-82
2022/04/18 09:46:08;;;;;;;3.90;2.20;;;;;;;-145.18;70.17;47101.88;5051547;28;20027;-82
2022/04/18 09:48:34;;;;;;;3.50;2.23;;;;;;;-145.18;77.33;47099.91;5051120;28;20032;-82
2022/04/18 09:50:59;;;;;;;4.63;2.10;;;;;;;-145.18;75.03;47080.38;5033450;28;20033;-82
2022/04/18 09:53:26;;;;;;;4.53;2.27;;;;;;;-145.18;74.20;47096.00;5051373;28;20041;-82
2022/04/18 09:55:54;;;;;;;3.67;2.27;;;;;;;-145.18;78.86;47111.66;5033546;28;20044;-82
2022/04/18 09:58:21;;;;;;;4.47;2.17;;;;;;;-145.18;81.25;47115.56;5030693;28;20041;-82
2022/04/18 10:00:48;;;;;;;4.43;2.10;;;;;;;-145.18;72.46;47111.66;5031221;28;20144;-82
2022/04/18 10:03:14;;;;;;;3.37;2.00;;;;;;;-145.18;76.64;47107.72;5030465;28;20053;-82
2022/04/18 10:05:40;;;;;;;4.97;2.10;;;;;;;-145.18;74.01;47111.66;5031252;28;20197;-81
2022/04/18 10:08:06;;;;;;;4.50;2.27;;;;;;;-145.18;68.85;47123.38;5030762;28;20398;-82
2022/04/18 10:10:40;;;;;;;5.43;2.77;;;;;;;-145.18;77.65;47094.06;5013542;28;20048;-82
2022/04/18 10:13:06;;;;;;;3.67;2.30;;;;;;;-145.18;75.95;47097.97;5030660;28;20039;-82
2022/04/18 10:15:34;;;;;;;4.60;2.37;;;;;;;-145.18;72.10;47097.97;5030983;28;20045;-82
2022/04/18 10:18:05;;;;;;;3.50;2.30;;;;;;;-145.18;75.90;47099.91;5030854;28;20042;-81
2022/04/18 10:20:51;;;;;;;9.23;2.43;;;;;;;-145.18;74.02;47094.06;5030821;28;20029;-82
2022/04/18 10:36:05;;;;;;;6.23;2.13;;;;;;;-145.18;66.90;47076.47;5033189;23;20425;-82
2022/04/18 10:38:33;;;;;;;6.07;2.90;;;;;;;-145.18;60.24;47060.84;5029835;28;20033;-82
2022/04/18 10:41:17;;;;;;;4.60;2.17;;;;;;;-145.18;64.51;47062.81;5028815;28;20030;-82
2022/04/18 10:44:05;;;;;;;3.03;1.90;;;;;;;-145.18;56.23;47043.28;5029032;28;20037;-82
2022/04/18 10:46:32;;;;;;;3.13;1.70;;;;;;;-145.18;64.35;47045.22;5025202;28;20517;-82
2022/04/18 10:49:04;;;;;;;3.27;2.20;;;;;;;-145.18;63.62;47058.91;5010170;28;20045;-82
2022/04/18 10:51:37;;;;;;;2.37;2.00;;;;;;;-145.18;58.82;47047.19;5009855;28;20448;-82
2022/04/18 10:54:09;;;;;;;7.43;2.00;;;;;;;-145.18;57.74;47039.34;5008109;28;20124;-85
2022/04/18 10:56:51;;;;;;;6.83;2.23;;;;;;;-145.18;57.82;47039.34;5009079;28;20033;-82
2022/04/18 10:59:22;;;;;;;3.67;1.93;;;;;;;-145.18;52.88;47027.63;5023012;28;20038;-81
2022/04/18 11:01:48;;;;;;;3.03;2.30;;;;;;;-145.18;50.72;47015.91;5024809;28;20021;-81
2022/04/18 11:04:14;;;;;;;5.17;2.90;;;;;;;-145.18;55.33;47039.34;5009534;28;20038;-81
2022/04/18 11:06:40;;;;;;;3.17;2.17;;;;;;;-145.18;55.64;47021.78;5010376;28;20099;-81
2022/04/18 11:09:13;;;;;;;3.70;2.20;;;;;;;-145.18;63.10;47025.69;5009998;28;20037;-82
2022/04/18 11:12:06;;;;;;;2.90;1.90;;;;;;;-145.18;55.63;47021.78;5010386;28;20030;-81
2022/04/18 11:15:00;;;;;;;5.17;2.20;;;;;;;-145.18;54.55;46994.44;5010103;28;20117;-81
2022/04/18 11:17:33;;;;;;;3.93;2.10;;;;;;;-145.18;54.67;47004.19;5009288;28;20471;-81
2022/04/18 11:20:28;;;;;;;3.87;2.23;;;;;;;-145.18;50.79;46996.38;5009110;28;20030;-82
2022/04/18 11:23:23;;;;;;;3.33;2.30;;;;;;;-145.18;54.03;46998.34;5007730;28;20038;-81
2022/04/18 11:26:07;;;;;;;4.70;2.30;;;;;;;-145.18;54.06;46992.47;5009655;28;20352;-81
2022/04/18 11:28:43;;;;;;;5.03;2.20;;;;;;;-145.18;50.76;47002.25;5010186;28;20034;-81
2022/04/18 11:31:21;;;;;;;4.47;3.13;;;;;;;-145.18;58.72;47002.25;5009548;28;20037;-81
2022/04/18 11:33:47;;;;;;;5.40;2.60;;;;;;;-145.18;52.21;47002.25;5009738;28;20105;-81
2022/04/18 11:36:13;;;;;;;4.20;2.33;;;;;;;-145.18;54.23;46971.00;5009275;28;20128;-81
2022/04/18 11:38:39;;;;;;;3.73;2.50;;;;;;;-145.18;49.78;46980.75;5008904;28;20038;-81
2022/04/18 11:41:14;;;;;;;3.93;2.60;;;;;;;-145.18;47.94;46976.84;5016489;28;20029;-81
2022/04/18 11:43:40;;;;;;;4.80;2.65;;;;;;;-145.18;47.85;46980.75;5029541;28;20211;-81
2022/04/18 11:46:08;;;;;;;3.60;2.40;;;;;;;-145.18;47.17;46978.81;5028490;28;20490;-81
2022/04/18 11:48:34;;;;;;;4.77;2.60;;;;;;;-145.18;52.59;46969.03;5029490;28;20033;-81
2022/04/18 11:51:00;;;;;;;2.90;2.53;;;;;;;-145.18;46.66;46965.13;5029245;28;20041;-81
2022/04/18 11:53:32;;;;;;;4.27;2.30;;;;;;;-145.18;45.29;46990.53;5030780;28;20107;-81
2022/04/18 11:56:02;;;;;;;3.20;2.47;;;;;;;-145.18;52.17;46971.00;5032652;28;20437;-81
2022/04/18 11:58:28;;;;;;;3.27;2.70;;;;;;;-145.18;52.44;46947.53;5032773;28;20429;-81
2022/04/18 12:09:11;;;;;;;6.83;3.10;;;;;;;-145.18;43.41;46867.44;5033075;28;20712;-81
2022/04/18 12:11:36;;;;;;;6.13;2.90;;;;;;;-145.18;40.24;46867.44;5032726;28;20029;-81
2022/04/18 12:14:03;;;;;;;4.80;2.40;;;;;;;-145.18;38.82;46875.28;5032752;28;20030;-81
2022/04/18 12:16:32;;;;;;;3.53;2.70;;;;;;;-145.18;35.80;46855.72;5007255;28;20029;-81
2022/04/18 12:18:58;;;;;;;4.80;2.40;;;;;;;-145.18;36.66;46861.59;5026826;28;20057;-78
2022/04/18 12:21:24;;;;;;;5.07;2.67;;;;;;;-145.18;35.66;46892.84;5031982;28;20060;-78
2022/04/18 12:24:00;;;;;;;4.80;2.63;;;;;;;-145.18;40.26;46871.38;5031096;28;20057;-78
2022/04/18 12:26:27;;;;;;;;;;;;;;;-145.18;39.18;46869.41;5031486;28;20045;-78
2022/04/18 12:29:00;;;;;;;4.50;2.60;;;;;;;-145.18;37.90;46887.00;5030841;28;19928;-78
2022/04/18 12:31:26;;;;;;;3.20;2.30;;;;;;;-145.18;38.52;46926.06;5031678;28;20017;-78
2022/04/18 12:33:52;;;;;;;3.47;2.30;;;;;;;-145.18;35.17;46914.34;5032425;28;20029;-78
2022/04/18 12:36:25;;;;;;;3.37;2.27;;;;;;;-145.18;35.05;46918.25;5031899;28;20433;-78
2022/04/18 12:38:51;;;;;;;4.30;2.50;;;;;;;-145.18;36.54;46955.34;5032207;28;20037;-78
2022/04/18 12:41:26;;;;;;;4.87;2.37;;;;;;;-145.18;43.49;46943.63;5032577;28;20036;-78
2022/04/18 12:43:52;;;;;;;;;;;;;;;-145.18;41.99;46937.78;5032484;28;20807;-79
2022/04/18 12:46:17;;;;;;;3.83;2.40;;;;;;;-145.18;41.81;46961.22;5032425;28;19917;-78
2022/04/18 12:48:49;;;;;;;3.07;2.30;;;;;;;-145.18;35.36;46955.34;5032290;28;20041;-78
2022/04/18 12:51:15;;;;;;;5.80;2.00;;;;;;;-145.18;43.73;46961.22;5032627;28;20109;-79
2022/04/18 12:53:53;;;;;;;2.77;1.90;;;;;;;-145.18;42.04;46949.50;5031549;28;20112;-79
2022/04/18 12:56:20;;;;;;;3.43;2.17;;;;;;;-145.18;42.18;46951.44;5031507;28;20393;-79
2022/04/18 12:58:52;;;;;;;2.20;1.90;;;;;;;-145.18;38.83;46937.78;5028300;28;20054;-79
2022/04/18 13:01:26;;;;;;;2.73;1.97;;;;;;;-145.18;38.15;46949.50;5026889;28;20030;-79
2022/04/18 13:03:53;;;;;;;2.10;1.63;;;;;;;-145.18;36.96;46965.13;5030598;28;20061;-78
2022/04/18 13:06:36;;;;;;;3.07;2.00;;;;;;;-145.18;40.47;46957.31;5031726;28;20026;-79
2022/04/18 13:09:06;;;;;;;3.07;2.10;;;;;;;-145.18;43.82;46953.41;5027659;28;20034;-81
2022/04/18 13:11:45;;;;;;;2.80;2.17;;;;;;;-145.18;38.96;46953.41;5031927;28;20022;-81
2022/04/18 13:14:14;;;;;;;4.97;1.90;;;;;;;-145.18;43.27;46937.78;5015024;28;20040;-81
2022/04/18 13:16:41;;;;;;;3.70;1.90;;;;;;;-145.18;43.15;46922.16;5031603;28;20041;-79
2022/04/18 13:19:12;;;;;;;2.40;1.70;;;;;;;-145.18;38.09;46914.34;5031122;28;20409;-79
2022/04/18 13:21:38;;;;;;;6.17;1.80;;;;;;;-145.18;36.42;46920.19;5031038;28;20025;-79
2022/04/18 13:24:05;;;;;;;3.20;1.90;;;;;;;-145.18;37.75;46902.63;5031004;28;20041;-79
2022/04/18 13:26:31;;;;;;;2.30;1.90;;;;;;;-145.18;38.93;46926.06;5031876;28;20272;-79
2022/04/18 13:28:57;;;;;;;2.10;1.83;;;;;;;-145.18;39.00;46916.28;5031411;28;20037;-79
2022/04/18 13:31:24;;;;;;;6.77;2.07;;;;;;;-145.18;39.41;46926.06;5031048;28;20026;-79
2022/04/18 13:33:50;;;;;;;5.57;2.03;;;;;;;-145.18;36.60;46914.34;5031625;28;20175;-78
2022/04/18 13:36:30;;;;;;;5.83;1.90;;;;;;;-145.18;38.96;46914.34;5031119;28;20449;-79
2022/04/18 13:38:56;;;;;;;5.37;2.20;;;;;;;-145.18;34.49;46920.19;5031224;28;20036;-79
2022/04/18 13:41:23;;;;;;;2.40;2.03;;;;;;;-145.18;33.37;46896.75;5031417;28;20049;-79
2022/04/18 13:43:48;;;;;;;2.87;2.27;;;;;;;-145.18;31.18;46887.00;5030748;28;20506;-79
2022/04/18 13:46:14;;;;;;;5.90;2.73;;;;;;;-145.18;37.85;46900.66;5029905;28;20034;-79
2022/04/18 13:48:39;;;;;;;3.57;2.83;;;;;;;-145.18;36.23;46885.03;5027763;28;20096;-79